Terminal Aerodrome Forecast
Issued by NWS

Home | Current Version | Previous Version | Text Only | Print | Product List | Glossary On
Versions: 1 2 3 4 5 6 7 8 9 10 11 12 13 14 15 16 17 18 19 20 21 22 23 24 25
000
FTUS45 KBOI 201131
TAFMYL
TAF
KMYL 201131Z 2012/2112 VRB03KT P6SM SCT100
     FM201900 19010KT P6SM VCSH SCT080 BKN120
     FM210200 VRB05KT P6SM SCT120=

USA.gov is the U.S. government's official web portal to all federal, state and local government web resources and services.